sensor_id;sensor_type;location;lat;lon;timestamp;temperature;humidity
13310;DHT22;6723;48.256;16.402;2023-01-16T00:00:55;5.90;99.90
13310;DHT22;6723;48.256;16.402;2023-01-16T00:03:21;5.90;99.90
13310;DHT22;6723;48.256;16.402;2023-01-16T00:05:47;5.90;99.90
13310;DHT22;6723;48.256;16.402;2023-01-16T00:08:13;5.90;99.90
13310;DHT22;6723;48.256;16.402;2023-01-16T00:10:39;5.90;99.90
13310;DHT22;6723;48.256;16.402;2023-01-16T00:13:05;5.90;99.90
13310;DHT22;6723;48.256;16.402;2023-01-16T00:15:32;5.90;99.90
13310;DHT22;6723;48.256;16.402;2023-01-16T00:17:58;5.90;99.90
13310;DHT22;6723;48.256;16.402;2023-01-16T00:20:24;5.90;99.90
13310;DHT22;6723;48.256;16.402;2023-01-16T00:22:49;6.00;99.90
13310;DHT22;6723;48.256;16.402;2023-01-16T00:25:15;5.90;99.90
13310;DHT22;6723;48.256;16.402;2023-01-16T00:27:41;5.90;99.90
13310;DHT22;6723;48.256;16.402;2023-01-16T00:30:08;6.00;99.90
13310;DHT22;6723;48.256;16.402;2023-01-16T00:32:34;5.90;99.90
13310;DHT22;6723;48.256;16.402;2023-01-16T00:35:00;5.90;99.90
13310;DHT22;6723;48.256;16.402;2023-01-16T00:37:25;6.00;99.90
13310;DHT22;6723;48.256;16.402;2023-01-16T00:39:51;6.00;99.90
13310;DHT22;6723;48.256;16.402;2023-01-16T00:42:18;6.00;99.90
13310;DHT22;6723;48.256;16.402;2023-01-16T00:44:44;6.00;99.90
13310;DHT22;6723;48.256;16.402;2023-01-16T00:47:10;6.00;99.90
13310;DHT22;6723;48.256;16.402;2023-01-16T00:49:36;6.00;99.90
13310;DHT22;6723;48.256;16.402;2023-01-16T00:52:02;6.10;99.90
13310;DHT22;6723;48.256;16.402;2023-01-16T00:54:28;6.10;99.90
13310;DHT22;6723;48.256;16.402;2023-01-16T00:56:54;6.00;99.90
13310;DHT22;6723;48.256;16.402;2023-01-16T00:59:19;6.00;99.90
13310;DHT22;6723;48.256;16.402;2023-01-16T01:01:46;6.00;99.90
13310;DHT22;6723;48.256;16.402;2023-01-16T01:04:12;6.10;99.90
13310;DHT22;6723;48.256;16.402;2023-01-16T01:06:39;6.10;99.90
13310;DHT22;6723;48.256;16.402;2023-01-16T01:09:05;6.10;99.90
13310;DHT22;6723;48.256;16.402;2023-01-16T01:11:31;6.00;99.90
13310;DHT22;6723;48.256;16.402;2023-01-16T01:13:57;6.00;99.90
13310;DHT22;6723;48.256;16.402;2023-01-16T01:16:23;6.00;99.90
13310;DHT22;6723;48.256;16.402;2023-01-16T01:18:49;6.00;99.90
13310;DHT22;6723;48.256;16.402;2023-01-16T01:21:15;6.00;99.90
13310;DHT22;6723;48.256;16.402;2023-01-16T01:23:41;6.00;99.90
13310;DHT22;6723;48.256;16.402;2023-01-16T01:26:09;6.00;99.90
13310;DHT22;6723;48.256;16.402;2023-01-16T01:28:35;6.00;99.90
13310;DHT22;6723;48.256;16.402;2023-01-16T01:31:05;6.00;99.90
13310;DHT22;6723;48.256;16.402;2023-01-16T01:33:31;5.90;99.90
13310;DHT22;6723;48.256;16.402;2023-01-16T01:35:57;6.00;99.90
13310;DHT22;6723;48.256;16.402;2023-01-16T01:38:23;6.00;99.90
13310;DHT22;6723;48.256;16.402;2023-01-16T01:40:49;5.90;99.90
13310;DHT22;6723;48.256;16.402;2023-01-16T01:43:16;5.90;99.90
13310;DHT22;6723;48.256;16.402;2023-01-16T01:45:49;5.90;99.90
13310;DHT22;6723;48.256;16.402;2023-01-16T01:48:26;5.90;99.90
13310;DHT22;6723;48.256;16.402;2023-01-16T01:51:19;5.90;99.90
13310;DHT22;6723;48.256;16.402;2023-01-16T01:53:59;5.80;99.90
13310;DHT22;6723;48.256;16.402;2023-01-16T01:56:34;5.90;99.90
13310;DHT22;6723;48.256;16.402;2023-01-16T01:59:09;5.80;99.90
13310;DHT22;6723;48.256;16.402;2023-01-16T02:01:37;5.80;99.90
13310;DHT22;6723;48.256;16.402;2023-01-16T02:04:07;5.80;99.90
13310;DHT22;6723;48.256;16.402;2023-01-16T02:06:47;5.80;99.90
13310;DHT22;6723;48.256;16.402;2023-01-16T02:09:15;5.80;99.90
13310;DHT22;6723;48.256;16.402;2023-01-16T02:11:50;5.90;99.90
13310;DHT22;6723;48.256;16.402;2023-01-16T02:14:17;5.90;99.90
13310;DHT22;6723;48.256;16.402;2023-01-16T02:16:45;5.90;99.90
13310;DHT22;6723;48.256;16.402;2023-01-16T02:28:38;5.90;99.90
13310;DHT22;6723;48.256;16.402;2023-01-16T02:33:54;5.90;99.90
13310;DHT22;6723;48.256;16.402;2023-01-16T02:49:42;5.90;99.90
13310;DHT22;6723;48.256;16.402;2023-01-16T02:55:02;5.90;99.90
13310;DHT22;6723;48.256;16.402;2023-01-16T02:57:40;5.90;99.90
13310;DHT22;6723;48.256;16.402;2023-01-16T03:00:10;5.90;99.90
13310;DHT22;6723;48.256;16.402;2023-01-16T03:02:37;5.90;99.90
13310;DHT22;6723;48.256;16.402;2023-01-16T03:05:03;5.80;99.90
13310;DHT22;6723;48.256;16.402;2023-01-16T03:11:06;5.90;99.90
13310;DHT22;6723;48.256;16.402;2023-01-16T03:16:37;5.80;99.90
13310;DHT22;6723;48.256;16.402;2023-01-16T03:19:21;5.90;99.90
13310;DHT22;6723;48.256;16.402;2023-01-16T03:22:32;5.80;99.90
13310;DHT22;6723;48.256;16.402;2023-01-16T03:27:55;5.90;99.90
13310;DHT22;6723;48.256;16.402;2023-01-16T03:30:36;5.80;99.90
13310;DHT22;6723;48.256;16.402;2023-01-16T03:33:14;5.90;99.90
13310;DHT22;6723;48.256;16.402;2023-01-16T03:36:26;5.90;99.90
13310;DHT22;6723;48.256;16.402;2023-01-16T03:38:44;5.90;99.90
13310;DHT22;6723;48.256;16.402;2023-01-16T03:41:16;5.80;99.90
13310;DHT22;6723;48.256;16.402;2023-01-16T03:43:44;5.80;99.90
13310;DHT22;6723;48.256;16.402;2023-01-16T03:46:16;5.80;99.90
13310;DHT22;6723;48.256;16.402;2023-01-16T03:51:32;5.80;99.90
13310;DHT22;6723;48.256;16.402;2023-01-16T03:54:01;5.90;99.90
13310;DHT22;6723;48.256;16.402;2023-01-16T03:56:56;5.80;99.90
13310;DHT22;6723;48.256;16.402;2023-01-16T03:59:24;5.80;99.90
13310;DHT22;6723;48.256;16.402;2023-01-16T04:01:55;5.80;99.90
13310;DHT22;6723;48.256;16.402;2023-01-16T04:04:36;5.80;99.90
13310;DHT22;6723;48.256;16.402;2023-01-16T04:07:14;5.80;99.90
13310;DHT22;6723;48.256;16.402;2023-01-16T04:09:52;5.80;99.90
13310;DHT22;6723;48.256;16.402;2023-01-16T04:12:22;5.80;99.90
13310;DHT22;6723;48.256;16.402;2023-01-16T04:14:55;5.80;99.90
13310;DHT22;6723;48.256;16.402;2023-01-16T04:17:22;5.80;99.90
13310;DHT22;6723;48.256;16.402;2023-01-16T04:19:49;5.80;99.90
13310;DHT22;6723;48.256;16.402;2023-01-16T04:22:26;5.80;99.90
13310;DHT22;6723;48.256;16.402;2023-01-16T04:24:55;5.80;99.90
13310;DHT22;6723;48.256;16.402;2023-01-16T04:27:21;5.80;99.90
13310;DHT22;6723;48.256;16.402;2023-01-16T04:29:47;5.80;99.90
13310;DHT22;6723;48.256;16.402;2023-01-16T04:32:13;5.80;99.90
13310;DHT22;6723;48.256;16.402;2023-01-16T04:34:39;5.80;99.90
13310;DHT22;6723;48.256;16.402;2023-01-16T04:37:06;5.80;99.90
13310;DHT22;6723;48.256;16.402;2023-01-16T04:39:32;5.80;99.90
13310;DHT22;6723;48.256;16.402;2023-01-16T04:41:58;5.70;99.90
13310;DHT22;6723;48.256;16.402;2023-01-16T04:44:24;5.70;99.90
13310;DHT22;6723;48.256;16.402;2023-01-16T04:46:50;5.70;99.90
13310;DHT22;6723;48.256;16.402;2023-01-16T04:49:16;5.80;99.90
13310;DHT22;6723;48.256;16.402;2023-01-16T04:51:42;5.80;99.90
13310;DHT22;6723;48.256;16.402;2023-01-16T04:54:12;5.80;99.90
13310;DHT22;6723;48.256;16.402;2023-01-16T04:56:39;5.80;99.90
13310;DHT22;6723;48.256;16.402;2023-01-16T04:59:05;5.80;99.90
13310;DHT22;6723;48.256;16.402;2023-01-16T05:01:30;5.80;99.90
13310;DHT22;6723;48.256;16.402;2023-01-16T05:04:04;5.80;99.90
13310;DHT22;6723;48.256;16.402;2023-01-16T05:06:31;5.80;99.90
13310;DHT22;6723;48.256;16.402;2023-01-16T05:08:57;5.90;99.90
13310;DHT22;6723;48.256;16.402;2023-01-16T05:11:23;5.90;99.90
13310;DHT22;6723;48.256;16.402;2023-01-16T05:13:48;5.90;99.90
13310;DHT22;6723;48.256;16.402;2023-01-16T05:16:14;5.90;99.90
13310;DHT22;6723;48.256;16.402;2023-01-16T05:18:40;5.90;99.90
13310;DHT22;6723;48.256;16.402;2023-01-16T05:21:06;5.90;99.90
13310;DHT22;6723;48.256;16.402;2023-01-16T05:23:32;6.00;99.90
13310;DHT22;6723;48.256;16.402;2023-01-16T05:26:03;5.90;99.90
13310;DHT22;6723;48.256;16.402;2023-01-16T05:28:30;5.90;99.90
13310;DHT22;6723;48.256;16.402;2023-01-16T05:30:56;6.00;99.90
13310;DHT22;6723;48.256;16.402;2023-01-16T05:33:22;6.00;99.90
13310;DHT22;6723;48.256;16.402;2023-01-16T05:35:48;5.90;99.90
13310;DHT22;6723;48.256;16.402;2023-01-16T05:38:15;6.00;99.90
13310;DHT22;6723;48.256;16.402;2023-01-16T05:40:40;6.00;99.90
13310;DHT22;6723;48.256;16.402;2023-01-16T05:43:07;6.10;99.90
13310;DHT22;6723;48.256;16.402;2023-01-16T05:45:33;6.00;99.90
13310;DHT22;6723;48.256;16.402;2023-01-16T05:47:59;6.00;99.90
13310;DHT22;6723;48.256;16.402;2023-01-16T05:50:24;6.00;99.90
13310;DHT22;6723;48.256;16.402;2023-01-16T05:52:50;5.90;99.90
13310;DHT22;6723;48.256;16.402;2023-01-16T05:55:16;5.80;99.90
13310;DHT22;6723;48.256;16.402;2023-01-16T05:57:43;5.80;99.90
13310;DHT22;6723;48.256;16.402;2023-01-16T06:00:09;5.80;99.90
13310;DHT22;6723;48.256;16.402;2023-01-16T06:02:35;5.90;99.90
13310;DHT22;6723;48.256;16.402;2023-01-16T06:05:01;5.80;99.90
13310;DHT22;6723;48.256;16.402;2023-01-16T06:07:27;5.80;99.90
13310;DHT22;6723;48.256;16.402;2023-01-16T06:09:52;5.90;99.90
13310;DHT22;6723;48.256;16.402;2023-01-16T06:12:19;5.90;99.90
13310;DHT22;6723;48.256;16.402;2023-01-16T06:14:48;6.00;99.90
13310;DHT22;6723;48.256;16.402;2023-01-16T06:17:14;6.00;99.90
13310;DHT22;6723;48.256;16.402;2023-01-16T06:19:42;5.90;99.90
13310;DHT22;6723;48.256;16.402;2023-01-16T06:22:08;5.80;99.90
13310;DHT22;6723;48.256;16.402;2023-01-16T06:24:33;5.80;99.90
13310;DHT22;6723;48.256;16.402;2023-01-16T06:26:59;5.80;99.90
13310;DHT22;6723;48.256;16.402;2023-01-16T06:29:25;5.90;99.90
13310;DHT22;6723;48.256;16.402;2023-01-16T06:31:51;5.80;99.90
13310;DHT22;6723;48.256;16.402;2023-01-16T06:34:16;5.90;99.90
13310;DHT22;6723;48.256;16.402;2023-01-16T06:36:42;5.80;99.90
13310;DHT22;6723;48.256;16.402;2023-01-16T06:39:12;5.80;99.90
13310;DHT22;6723;48.256;16.402;2023-01-16T06:41:38;5.80;99.90
13310;DHT22;6723;48.256;16.402;2023-01-16T06:44:04;6.00;99.90
13310;DHT22;6723;48.256;16.402;2023-01-16T06:46:30;6.10;99.90
13310;DHT22;6723;48.256;16.402;2023-01-16T06:48:56;6.10;99.90
13310;DHT22;6723;48.256;16.402;2023-01-16T06:51:22;6.20;99.90
13310;DHT22;6723;48.256;16.402;2023-01-16T06:53:48;6.10;99.90
13310;DHT22;6723;48.256;16.402;2023-01-16T06:56:13;6.10;99.90
13310;DHT22;6723;48.256;16.402;2023-01-16T06:58:39;6.20;99.90
13310;DHT22;6723;48.256;16.402;2023-01-16T07:01:05;6.00;99.90
13310;DHT22;6723;48.256;16.402;2023-01-16T07:03:32;5.70;99.90
13310;DHT22;6723;48.256;16.402;2023-01-16T07:05:58;5.80;99.90
13310;DHT22;6723;48.256;16.402;2023-01-16T07:08:23;5.70;99.90
13310;DHT22;6723;48.256;16.402;2023-01-16T07:10:49;5.70;99.90
13310;DHT22;6723;48.256;16.402;2023-01-16T07:13:15;5.60;99.90
13310;DHT22;6723;48.256;16.402;2023-01-16T07:15:46;5.60;99.90
13310;DHT22;6723;48.256;16.402;2023-01-16T07:18:30;5.50;99.90
13310;DHT22;6723;48.256;16.402;2023-01-16T07:21:14;5.60;99.90
13310;DHT22;6723;48.256;16.402;2023-01-16T07:24:03;5.50;99.90
13310;DHT22;6723;48.256;16.402;2023-01-16T07:26:30;5.40;99.90
13310;DHT22;6723;48.256;16.402;2023-01-16T07:28:57;5.50;99.90
13310;DHT22;6723;48.256;16.402;2023-01-16T07:31:24;5.50;99.90
13310;DHT22;6723;48.256;16.402;2023-01-16T07:33:50;5.40;99.90
13310;DHT22;6723;48.256;16.402;2023-01-16T07:36:16;5.50;99.90
13310;DHT22;6723;48.256;16.402;2023-01-16T07:38:42;5.50;99.90
13310;DHT22;6723;48.256;16.402;2023-01-16T07:41:08;5.60;99.90
13310;DHT22;6723;48.256;16.402;2023-01-16T07:43:34;5.60;99.90
13310;DHT22;6723;48.256;16.402;2023-01-16T07:45:59;5.70;99.90
13310;DHT22;6723;48.256;16.402;2023-01-16T07:48:26;5.70;99.90
13310;DHT22;6723;48.256;16.402;2023-01-16T07:50:56;5.70;99.90
13310;DHT22;6723;48.256;16.402;2023-01-16T07:53:24;5.70;99.90
13310;DHT22;6723;48.256;16.402;2023-01-16T07:55:52;5.60;99.90
13310;DHT22;6723;48.256;16.402;2023-01-16T07:58:19;5.70;99.90
13310;DHT22;6723;48.256;16.402;2023-01-16T08:00:46;5.70;99.90
13310;DHT22;6723;48.256;16.402;2023-01-16T08:03:12;5.60;99.90
13310;DHT22;6723;48.256;16.402;2023-01-16T08:05:40;5.50;99.90
13310;DHT22;6723;48.256;16.402;2023-01-16T08:08:09;5.70;99.90
13310;DHT22;6723;48.256;16.402;2023-01-16T08:10:36;5.70;99.90
13310;DHT22;6723;48.256;16.402;2023-01-16T08:13:02;5.70;99.90
13310;DHT22;6723;48.256;16.402;2023-01-16T08:15:27;5.80;99.90
13310;DHT22;6723;48.256;16.402;2023-01-16T08:17:53;5.70;99.90
13310;DHT22;6723;48.256;16.402;2023-01-16T08:20:19;5.60;99.90
13310;DHT22;6723;48.256;16.402;2023-01-16T08:22:47;5.70;99.90
13310;DHT22;6723;48.256;16.402;2023-01-16T08:25:14;5.70;99.90
13310;DHT22;6723;48.256;16.402;2023-01-16T08:27:41;5.60;99.90
13310;DHT22;6723;48.256;16.402;2023-01-16T08:30:07;5.50;99.90
13310;DHT22;6723;48.256;16.402;2023-01-16T08:32:33;5.50;99.90
13310;DHT22;6723;48.256;16.402;2023-01-16T08:34:59;5.50;99.90
13310;DHT22;6723;48.256;16.402;2023-01-16T08:37:25;5.60;99.90
13310;DHT22;6723;48.256;16.402;2023-01-16T08:39:51;5.50;99.90
13310;DHT22;6723;48.256;16.402;2023-01-16T08:42:16;5.60;99.90
13310;DHT22;6723;48.256;16.402;2023-01-16T08:45:01;5.80;99.90
13310;DHT22;6723;48.256;16.402;2023-01-16T08:47:45;5.80;99.90
13310;DHT22;6723;48.256;16.402;2023-01-16T08:50:29;5.80;99.90
13310;DHT22;6723;48.256;16.402;2023-01-16T08:53:13;5.90;99.90
13310;DHT22;6723;48.256;16.402;2023-01-16T08:55:39;6.00;99.90
13310;DHT22;6723;48.256;16.402;2023-01-16T08:58:05;6.10;99.90
13310;DHT22;6723;48.256;16.402;2023-01-16T09:00:31;6.10;99.90
13310;DHT22;6723;48.256;16.402;2023-01-16T09:02:57;6.10;99.90
13310;DHT22;6723;48.256;16.402;2023-01-16T09:05:25;6.10;99.90
13310;DHT22;6723;48.256;16.402;2023-01-16T09:07:51;6.20;99.90
13310;DHT22;6723;48.256;16.402;2023-01-16T09:10:17;6.10;99.90
13310;DHT22;6723;48.256;16.402;2023-01-16T09:12:43;6.20;99.90
13310;DHT22;6723;48.256;16.402;2023-01-16T09:15:27;6.00;99.90
13310;DHT22;6723;48.256;16.402;2023-01-16T09:17:55;5.90;99.90
13310;DHT22;6723;48.256;16.402;2023-01-16T09:20:21;5.90;99.90
13310;DHT22;6723;48.256;16.402;2023-01-16T09:22:46;5.90;99.90
13310;DHT22;6723;48.256;16.402;2023-01-16T09:25:12;6.00;99.90
13310;DHT22;6723;48.256;16.402;2023-01-16T09:27:38;6.00;99.90
13310;DHT22;6723;48.256;16.402;2023-01-16T09:30:05;6.00;99.90
13310;DHT22;6723;48.256;16.402;2023-01-16T09:32:31;6.00;99.90
13310;DHT22;6723;48.256;16.402;2023-01-16T09:34:59;6.00;99.90
13310;DHT22;6723;48.256;16.402;2023-01-16T09:37:24;6.00;99.90
13310;DHT22;6723;48.256;16.402;2023-01-16T09:39:50;5.70;99.90
13310;DHT22;6723;48.256;16.402;2023-01-16T09:42:27;5.60;99.90
13310;DHT22;6723;48.256;16.402;2023-01-16T09:45:17;5.60;99.90
13310;DHT22;6723;48.256;16.402;2023-01-16T09:47:48;5.50;99.90
13310;DHT22;6723;48.256;16.402;2023-01-16T09:52:57;5.90;99.90
13310;DHT22;6723;48.256;16.402;2023-01-16T09:55:51;5.90;99.90
13310;DHT22;6723;48.256;16.402;2023-01-16T09:58:40;6.10;99.90
13310;DHT22;6723;48.256;16.402;2023-01-16T10:01:15;6.20;99.90
13310;DHT22;6723;48.256;16.402;2023-01-16T10:03:42;6.20;99.90
13310;DHT22;6723;48.256;16.402;2023-01-16T10:06:29;6.20;99.90
13310;DHT22;6723;48.256;16.402;2023-01-16T10:09:14;6.10;99.90
13310;DHT22;6723;48.256;16.402;2023-01-16T10:12:08;6.30;99.90
13310;DHT22;6723;48.256;16.402;2023-01-16T10:20:48;6.30;99.90
13310;DHT22;6723;48.256;16.402;2023-01-16T10:31:18;6.90;99.90
13310;DHT22;6723;48.256;16.402;2023-01-16T10:34:15;7.00;99.90
13310;DHT22;6723;48.256;16.402;2023-01-16T10:36:47;7.10;99.90
13310;DHT22;6723;48.256;16.402;2023-01-16T10:39:17;7.20;99.90
13310;DHT22;6723;48.256;16.402;2023-01-16T10:41:51;7.10;99.90
13310;DHT22;6723;48.256;16.402;2023-01-16T10:44:50;7.20;99.90
13310;DHT22;6723;48.256;16.402;2023-01-16T10:47:38;6.80;99.90
13310;DHT22;6723;48.256;16.402;2023-01-16T10:50:24;6.80;99.90
13310;DHT22;6723;48.256;16.402;2023-01-16T10:52:50;6.50;99.90
13310;DHT22;6723;48.256;16.402;2023-01-16T10:55:17;6.50;99.90
13310;DHT22;6723;48.256;16.402;2023-01-16T10:57:55;6.60;99.90
13310;DHT22;6723;48.256;16.402;2023-01-16T11:00:25;6.30;99.90
13310;DHT22;6723;48.256;16.402;2023-01-16T11:03:01;6.10;99.90
13310;DHT22;6723;48.256;16.402;2023-01-16T11:05:34;6.10;99.90
13310;DHT22;6723;48.256;16.402;2023-01-16T11:08:18;6.30;99.90
13310;DHT22;6723;48.256;16.402;2023-01-16T11:10:54;6.40;99.90
13310;DHT22;6723;48.256;16.402;2023-01-16T11:13:23;6.60;99.90
13310;DHT22;6723;48.256;16.402;2023-01-16T11:18:56;6.50;99.90
13310;DHT22;6723;48.256;16.402;2023-01-16T11:21:30;6.50;99.90
13310;DHT22;6723;48.256;16.402;2023-01-16T11:24:05;6.60;99.90
13310;DHT22;6723;48.256;16.402;2023-01-16T11:26:36;6.70;99.90
13310;DHT22;6723;48.256;16.402;2023-01-16T11:29:02;7.20;99.90
13310;DHT22;6723;48.256;16.402;2023-01-16T11:31:28;7.60;99.90
13310;DHT22;6723;48.256;16.402;2023-01-16T11:34:02;7.60;99.90
13310;DHT22;6723;48.256;16.402;2023-01-16T11:36:34;7.80;99.90
13310;DHT22;6723;48.256;16.402;2023-01-16T11:39:02;7.70;99.90
13310;DHT22;6723;48.256;16.402;2023-01-16T11:41:35;7.70;99.90
13310;DHT22;6723;48.256;16.402;2023-01-16T11:44:16;7.30;99.90
13310;DHT22;6723;48.256;16.402;2023-01-16T11:47:01;7.30;99.90
13310;DHT22;6723;48.256;16.402;2023-01-16T11:49:40;7.10;99.90
13310;DHT22;6723;48.256;16.402;2023-01-16T11:52:16;6.60;99.90
13310;DHT22;6723;48.256;16.402;2023-01-16T11:55:03;6.60;99.90
13310;DHT22;6723;48.256;16.402;2023-01-16T11:57:49;6.30;99.90
13310;DHT22;6723;48.256;16.402;2023-01-16T12:00:58;6.20;99.90
13310;DHT22;6723;48.256;16.402;2023-01-16T12:03:37;6.40;99.90
13310;DHT22;6723;48.256;16.402;2023-01-16T12:11:46;6.40;99.90
13310;DHT22;6723;48.256;16.402;2023-01-16T12:16:52;5.80;99.90
13310;DHT22;6723;48.256;16.402;2023-01-16T12:33:10;6.40;99.90
13310;DHT22;6723;48.256;16.402;2023-01-16T12:36:15;6.20;99.90
13310;DHT22;6723;48.256;16.402;2023-01-16T12:41:45;6.40;99.90
13310;DHT22;6723;48.256;16.402;2023-01-16T12:50:28;6.30;99.90
13310;DHT22;6723;48.256;16.402;2023-01-16T12:58:22;5.90;99.90
13310;DHT22;6723;48.256;16.402;2023-01-16T13:03:59;6.10;99.90
13310;DHT22;6723;48.256;16.402;2023-01-16T13:15:00;6.00;99.90
13310;DHT22;6723;48.256;16.402;2023-01-16T13:17:43;5.80;99.90
13310;DHT22;6723;48.256;16.402;2023-01-16T13:20:13;5.90;99.90
13310;DHT22;6723;48.256;16.402;2023-01-16T13:23:10;5.70;99.90
13310;DHT22;6723;48.256;16.402;2023-01-16T13:25:42;5.80;99.90
13310;DHT22;6723;48.256;16.402;2023-01-16T13:31:35;5.50;99.90
13310;DHT22;6723;48.256;16.402;2023-01-16T13:34:30;5.50;99.90
13310;DHT22;6723;48.256;16.402;2023-01-16T13:37:30;5.50;99.90
13310;DHT22;6723;48.256;16.402;2023-01-16T13:40:33;5.50;99.90
13310;DHT22;6723;48.256;16.402;2023-01-16T13:43:16;5.40;99.90
13310;DHT22;6723;48.256;16.402;2023-01-16T13:46:02;5.20;99.90
13310;DHT22;6723;48.256;16.402;2023-01-16T13:48:31;5.20;99.90
13310;DHT22;6723;48.256;16.402;2023-01-16T13:51:03;5.00;99.90
13310;DHT22;6723;48.256;16.402;2023-01-16T13:53:35;5.10;99.90
13310;DHT22;6723;48.256;16.402;2023-01-16T13:58:44;5.00;99.90
13310;DHT22;6723;48.256;16.402;2023-01-16T14:01:33;5.10;99.90
13310;DHT22;6723;48.256;16.402;2023-01-16T14:04:30;5.10;99.90
13310;DHT22;6723;48.256;16.402;2023-01-16T14:07:45;5.20;99.90
13310;DHT22;6723;48.256;16.402;2023-01-16T14:10:22;5.30;99.90
13310;DHT22;6723;48.256;16.402;2023-01-16T14:15:59;5.10;99.90
13310;DHT22;6723;48.256;16.402;2023-01-16T14:21:41;4.80;99.90
13310;DHT22;6723;48.256;16.402;2023-01-16T14:24:28;4.90;99.90
13310;DHT22;6723;48.256;16.402;2023-01-16T14:27:03;4.90;99.90
13310;DHT22;6723;48.256;16.402;2023-01-16T14:29:50;4.90;99.90
13310;DHT22;6723;48.256;16.402;2023-01-16T14:32:19;5.00;99.90
13310;DHT22;6723;48.256;16.402;2023-01-16T14:39:55;5.10;99.90
13310;DHT22;6723;48.256;16.402;2023-01-16T14:42:38;5.00;99.90
13310;DHT22;6723;48.256;16.402;2023-01-16T14:45:27;4.80;99.90
13310;DHT22;6723;48.256;16.402;2023-01-16T14:57:06;4.50;99.90
13310;DHT22;6723;48.256;16.402;2023-01-16T15:00:04;4.60;99.90
13310;DHT22;6723;48.256;16.402;2023-01-16T15:03:19;4.50;99.90
13310;DHT22;6723;48.256;16.402;2023-01-16T15:05:49;4.60;99.90
13310;DHT22;6723;48.256;16.402;2023-01-16T15:08:35;4.60;99.90
13310;DHT22;6723;48.256;16.402;2023-01-16T15:11:20;4.60;99.90
13310;DHT22;6723;48.256;16.402;2023-01-16T15:14:15;4.40;99.90
13310;DHT22;6723;48.256;16.402;2023-01-16T15:22:59;4.50;99.90
13310;DHT22;6723;48.256;16.402;2023-01-16T15:28:37;4.50;99.90
13310;DHT22;6723;48.256;16.402;2023-01-16T15:33:37;4.60;99.90
13310;DHT22;6723;48.256;16.402;2023-01-16T15:38:53;4.50;99.90
13310;DHT22;6723;48.256;16.402;2023-01-16T15:41:24;4.40;99.90
13310;DHT22;6723;48.256;16.402;2023-01-16T15:44:20;4.40;99.90
13310;DHT22;6723;48.256;16.402;2023-01-16T15:47:29;4.30;99.90
13310;DHT22;6723;48.256;16.402;2023-01-16T15:50:15;4.20;99.90
13310;DHT22;6723;48.256;16.402;2023-01-16T15:52:43;4.30;99.90
13310;DHT22;6723;48.256;16.402;2023-01-16T15:55:18;4.40;99.90
13310;DHT22;6723;48.256;16.402;2023-01-16T15:57:56;4.50;99.90
13310;DHT22;6723;48.256;16.402;2023-01-16T16:03:17;4.80;99.90
13310;DHT22;6723;48.256;16.402;2023-01-16T16:06:00;4.90;99.90
13310;DHT22;6723;48.256;16.402;2023-01-16T16:08:31;4.70;99.90
13310;DHT22;6723;48.256;16.402;2023-01-16T16:10:59;4.60;99.90
13310;DHT22;6723;48.256;16.402;2023-01-16T16:13:45;4.60;99.90
13310;DHT22;6723;48.256;16.402;2023-01-16T16:16:20;4.60;99.90
13310;DHT22;6723;48.256;16.402;2023-01-16T16:19:06;4.50;99.90
13310;DHT22;6723;48.256;16.402;2023-01-16T16:21:45;4.50;99.90
13310;DHT22;6723;48.256;16.402;2023-01-16T16:24:40;4.50;99.90
13310;DHT22;6723;48.256;16.402;2023-01-16T16:27:11;4.50;99.90
13310;DHT22;6723;48.256;16.402;2023-01-16T16:29:38;4.40;99.90
13310;DHT22;6723;48.256;16.402;2023-01-16T16:32:05;4.40;99.90
13310;DHT22;6723;48.256;16.402;2023-01-16T16:34:37;4.40;99.90
13310;DHT22;6723;48.256;16.402;2023-01-16T16:37:13;4.20;99.90
13310;DHT22;6723;48.256;16.402;2023-01-16T16:47:33;4.10;99.90
13310;DHT22;6723;48.256;16.402;2023-01-16T16:49:59;4.10;99.90
13310;DHT22;6723;48.256;16.402;2023-01-16T16:52:36;4.10;99.90
13310;DHT22;6723;48.256;16.402;2023-01-16T16:55:27;4.10;99.90
13310;DHT22;6723;48.256;16.402;2023-01-16T16:57:56;4.00;99.90
13310;DHT22;6723;48.256;16.402;2023-01-16T17:00:22;4.00;99.90
13310;DHT22;6723;48.256;16.402;2023-01-16T17:02:50;4.00;99.90
13310;DHT22;6723;48.256;16.402;2023-01-16T17:05:18;4.00;99.90
13310;DHT22;6723;48.256;16.402;2023-01-16T17:07:48;4.00;99.90
13310;DHT22;6723;48.256;16.402;2023-01-16T17:10:16;4.20;99.90
13310;DHT22;6723;48.256;16.402;2023-01-16T17:12:42;4.20;99.90
13310;DHT22;6723;48.256;16.402;2023-01-16T17:15:09;4.10;99.90
13310;DHT22;6723;48.256;16.402;2023-01-16T17:17:42;4.10;99.90
13310;DHT22;6723;48.256;16.402;2023-01-16T17:20:19;4.00;99.90
13310;DHT22;6723;48.256;16.402;2023-01-16T17:22:47;3.90;99.90
13310;DHT22;6723;48.256;16.402;2023-01-16T17:25:16;4.10;99.90
13310;DHT22;6723;48.256;16.402;2023-01-16T17:27:45;4.10;99.90
13310;DHT22;6723;48.256;16.402;2023-01-16T17:30:13;4.20;99.90
13310;DHT22;6723;48.256;16.402;2023-01-16T17:32:40;4.00;99.90
13310;DHT22;6723;48.256;16.402;2023-01-16T17:35:15;4.10;99.90
13310;DHT22;6723;48.256;16.402;2023-01-16T17:37:43;4.10;99.90
13310;DHT22;6723;48.256;16.402;2023-01-16T17:40:09;4.00;99.90
13310;DHT22;6723;48.256;16.402;2023-01-16T17:42:36;4.00;99.90
13310;DHT22;6723;48.256;16.402;2023-01-16T17:45:30;4.00;99.90
13310;DHT22;6723;48.256;16.402;2023-01-16T17:48:15;4.00;99.90
13310;DHT22;6723;48.256;16.402;2023-01-16T17:50:41;3.90;99.90
13310;DHT22;6723;48.256;16.402;2023-01-16T17:53:13;4.00;99.90
13310;DHT22;6723;48.256;16.402;2023-01-16T17:55:40;3.90;99.90
13310;DHT22;6723;48.256;16.402;2023-01-16T17:58:19;3.70;99.90
13310;DHT22;6723;48.256;16.402;2023-01-16T18:01:02;3.70;99.90
13310;DHT22;6723;48.256;16.402;2023-01-16T18:06:41;3.90;99.90
13310;DHT22;6723;48.256;16.402;2023-01-16T18:09:09;4.00;99.90
13310;DHT22;6723;48.256;16.402;2023-01-16T18:11:37;4.00;99.90
13310;DHT22;6723;48.256;16.402;2023-01-16T18:14:22;4.00;99.90
13310;DHT22;6723;48.256;16.402;2023-01-16T18:17:10;3.90;99.90
13310;DHT22;6723;48.256;16.402;2023-01-16T18:19:56;3.90;99.90
13310;DHT22;6723;48.256;16.402;2023-01-16T18:22:24;4.00;99.90
13310;DHT22;6723;48.256;16.402;2023-01-16T18:24:51;3.90;99.90
13310;DHT22;6723;48.256;16.402;2023-01-16T18:27:26;4.00;99.90
13310;DHT22;6723;48.256;16.402;2023-01-16T18:29:56;4.00;99.90
13310;DHT22;6723;48.256;16.402;2023-01-16T18:32:22;3.90;99.90
13310;DHT22;6723;48.256;16.402;2023-01-16T18:35:01;3.90;99.90
13310;DHT22;6723;48.256;16.402;2023-01-16T18:40:13;3.90;99.90
13310;DHT22;6723;48.256;16.402;2023-01-16T18:42:59;3.80;99.90
13310;DHT22;6723;48.256;16.402;2023-01-16T18:45:44;3.70;99.90
13310;DHT22;6723;48.256;16.402;2023-01-16T18:48:44;3.80;99.90
13310;DHT22;6723;48.256;16.402;2023-01-16T18:51:30;3.80;99.90
13310;DHT22;6723;48.256;16.402;2023-01-16T18:54:19;3.80;99.90
13310;DHT22;6723;48.256;16.402;2023-01-16T18:57:11;3.80;99.90
13310;DHT22;6723;48.256;16.402;2023-01-16T18:59:56;3.80;99.90
13310;DHT22;6723;48.256;16.402;2023-01-16T19:02:48;3.80;99.90
13310;DHT22;6723;48.256;16.402;2023-01-16T19:05:20;3.80;99.90